createdAt,value
2019-05-02T00:03:04.525Z,56.10
2019-05-02T00:08:08.048Z,55.80
2019-05-02T00:13:13.110Z,56.20
2019-05-02T00:18:17.934Z,55.90
2019-05-02T00:23:22.925Z,55.90
2019-05-02T00:28:28.082Z,55.90
2019-05-02T00:33:34.505Z,56.40
2019-05-02T00:38:39.870Z,55.90
2019-05-02T00:43:43.955Z,55.80
2019-05-02T00:48:58.950Z,55.80
2019-05-02T00:53:59.606Z,55.70
2019-05-02T00:59:07.432Z,56.00
2019-05-02T01:04:27.429Z,55.80
2019-05-02T01:09:31.710Z,55.80
2019-05-02T01:14:35.939Z,55.80
2019-05-02T01:19:39.831Z,55.80
2019-05-02T01:24:44.007Z,55.70
2019-05-02T01:30:13.597Z,55.80
2019-05-02T01:35:26.933Z,55.80
2019-05-02T01:40:29.558Z,55.90
2019-05-02T01:45:34.148Z,56.00
2019-05-02T01:50:38.363Z,56.00
2019-05-02T01:55:42.644Z,55.90
2019-05-02T02:00:46.931Z,55.50
2019-05-02T02:05:50.985Z,55.50
2019-05-02T02:10:56.462Z,55.70
2019-05-02T02:16:04.335Z,55.60
2019-05-02T02:21:20.162Z,55.80
2019-05-02T02:26:25.469Z,55.90
2019-05-02T02:31:29.546Z,55.40
2019-05-02T02:36:34.883Z,55.60
2019-05-02T02:41:39.525Z,55.40
2019-05-02T02:46:45.588Z,55.30
2019-05-02T02:51:49.656Z,55.60
2019-05-02T02:56:53.967Z,55.70
2019-05-02T03:02:08.709Z,55.40
2019-05-02T03:07:04.392Z,55.50
2019-05-02T03:12:26.163Z,55.40
2019-05-02T03:17:30.785Z,55.60
2019-05-02T03:22:41.868Z,55.40
2019-05-02T03:27:41.644Z,55.40
2019-05-02T03:33:02.702Z,55.80
2019-05-02T03:37:53.226Z,56.10
2019-05-02T03:42:58.047Z,55.60
2019-05-02T03:48:02.752Z,55.70
2019-05-02T03:53:06.905Z,55.80
2019-05-02T03:58:14.685Z,55.70
2019-05-02T04:03:18.860Z,55.90
2019-05-02T04:08:24.700Z,55.70
2019-05-02T04:13:30.186Z,55.90
2019-05-02T04:18:35.022Z,56.00
2019-05-02T04:23:40.020Z,55.90
2019-05-02T04:28:45.515Z,56.00
2019-05-02T04:33:50.813Z,55.80
2019-05-02T04:38:55.119Z,55.80
2019-05-02T04:44:01.664Z,56.10
2019-05-02T04:49:05.423Z,56.00
2019-05-02T04:54:09.568Z,55.80
2019-05-02T04:59:19.864Z,56.00
2019-05-02T05:04:20.131Z,55.90
2019-05-02T05:09:24.295Z,55.90
2019-05-02T05:14:31.364Z,56.30
2019-05-02T05:19:34.516Z,56.00
2019-05-02T05:24:44.102Z,55.90
2019-05-02T05:29:48.599Z,56.00
2019-05-02T05:34:52.758Z,56.10
2019-05-02T05:39:58.037Z,55.80
2019-05-02T05:45:03.749Z,55.80
2019-05-02T05:50:08.434Z,55.80
2019-05-02T05:55:17.279Z,55.80
2019-05-02T06:00:23.016Z,55.90
2019-05-02T06:05:27.144Z,56.00
2019-05-02T06:10:31.097Z,55.90
2019-05-02T06:15:39.035Z,56.00
2019-05-02T06:20:40.982Z,56.50
2019-05-02T06:25:45.213Z,55.70
2019-05-02T06:30:49.555Z,55.90
2019-05-02T06:36:01.098Z,56.00
2019-05-02T06:40:59.355Z,56.10
2019-05-02T06:46:15.510Z,56.00
2019-05-02T06:51:10.945Z,56.10
2019-05-02T06:56:15.535Z,56.00
2019-05-02T07:01:21.122Z,56.00
2019-05-02T07:06:26.008Z,55.90
2019-05-02T07:11:33.298Z,56.10
2019-05-02T07:16:44.475Z,56.10
2019-05-02T07:21:48.449Z,56.20
2019-05-02T07:26:56.881Z,56.20
2019-05-02T07:31:58.679Z,56.20
2019-05-02T07:37:02.711Z,56.40
2019-05-02T07:42:07.903Z,56.60
2019-05-02T07:47:12.199Z,56.20
2019-05-02T07:52:16.227Z,56.50
2019-05-02T07:57:20.467Z,56.60
2019-05-02T08:02:25.085Z,56.50
2019-05-02T08:07:34.210Z,56.70
2019-05-02T08:12:36.306Z,56.70
2019-05-02T08:17:40.571Z,56.80
2019-05-02T08:22:48.996Z,56.80
2019-05-02T08:27:56.595Z,56.70
2019-05-02T08:33:00.951Z,56.80
2019-05-02T08:38:05.091Z,57.00
2019-05-02T08:43:10.901Z,57.00
2019-05-02T08:48:15.407Z,57.10
2019-05-02T08:53:20.666Z,57.30
2019-05-02T08:58:25.890Z,57.30
2019-05-02T09:03:38.880Z,57.40
2019-05-02T09:08:35.912Z,57.30
2019-05-02T09:13:42.059Z,57.40
2019-05-02T09:18:51.090Z,57.60
2019-05-02T09:23:51.734Z,57.50
2019-05-02T09:28:56.285Z,57.40
2019-05-02T09:34:02.727Z,57.50
2019-05-02T09:39:07.771Z,57.10
2019-05-02T09:44:17.363Z,57.30
2019-05-02T09:49:18.483Z,57.10
2019-05-02T09:54:23.099Z,56.90
2019-05-02T09:59:33.957Z,56.80
2019-05-02T10:04:41.540Z,56.70
2019-05-02T10:09:45.760Z,56.90
2019-05-02T10:14:49.803Z,56.20
2019-05-02T10:19:57.149Z,55.70
2019-05-02T10:25:02.426Z,55.50
2019-05-02T10:30:11.719Z,55.40
2019-05-02T10:35:15.671Z,55.20
2019-05-02T10:40:20.075Z,54.70
2019-05-02T10:45:24.487Z,54.70
2019-05-02T10:50:36.819Z,54.60
2019-05-02T10:55:42.547Z,54.40
2019-05-02T11:00:47.348Z,54.20
2019-05-02T11:05:58.038Z,54.10
2019-05-02T11:11:03.253Z,54.40
2019-05-02T11:16:42.411Z,54.30
2019-05-02T11:21:55.817Z,54.00
2019-05-02T11:26:52.927Z,53.90
2019-05-02T11:31:57.535Z,54.00
2019-05-02T11:37:01.837Z,54.20
2019-05-02T11:42:06.380Z,53.60
2019-05-02T11:47:12.490Z,54.20
2019-05-02T11:52:16.415Z,53.50
2019-05-02T11:57:28.316Z,53.50
2019-05-02T12:02:49.187Z,53.60
2019-05-02T12:07:53.692Z,53.20
2019-05-02T12:12:58.932Z,53.20
2019-05-02T12:18:02.906Z,53.00
2019-05-02T12:23:09.075Z,52.70
2019-05-02T12:28:13.290Z,52.90
2019-05-02T12:33:19.019Z,53.00
2019-05-02T12:38:23.329Z,52.80
2019-05-02T12:43:27.587Z,52.80
2019-05-02T12:48:32.792Z,53.20
2019-05-02T12:53:37.287Z,52.90
2019-05-02T12:58:42.147Z,52.80
2019-05-02T13:03:51.797Z,52.50
2019-05-02T13:08:55.948Z,52.30
2019-05-02T13:14:02.188Z,52.30
2019-05-02T13:19:07.159Z,52.50
2019-05-02T13:24:29.129Z,52.80
2019-05-02T13:29:32.196Z,52.40
2019-05-02T13:34:48.570Z,52.90
2019-05-02T13:40:12.770Z,53.70
2019-05-02T13:45:27.970Z,53.80
2019-05-02T13:50:32.011Z,53.00
2019-05-02T13:55:44.435Z,52.90
2019-05-02T14:00:50.043Z,52.90
2019-05-02T14:05:54.085Z,52.90
2019-05-02T14:11:17.215Z,53.30
2019-05-02T14:16:22.139Z,52.50
2019-05-02T14:21:26.641Z,52.40
2019-05-02T14:26:33.060Z,52.30
2019-05-02T14:31:36.683Z,52.10
2019-05-02T14:36:42.305Z,52.00
2019-05-02T14:41:47.175Z,51.90
2019-05-02T14:46:52.340Z,51.40
2019-05-02T14:51:57.309Z,51.70
2019-05-02T14:57:17.167Z,51.90
2019-05-02T15:02:39.302Z,50.70
2019-05-02T15:07:43.835Z,50.50
2019-05-02T15:12:51.693Z,51.00
2019-05-02T15:17:54.099Z,51.10
2019-05-02T15:22:58.623Z,50.60
2019-05-02T15:28:02.619Z,50.50
2019-05-02T15:33:12.515Z,50.80
2019-05-02T15:38:24.819Z,50.70
2019-05-02T15:43:23.334Z,50.90
2019-05-02T15:48:27.831Z,51.20
2019-05-02T15:53:49.676Z,52.00
2019-05-02T15:58:52.426Z,52.50
2019-05-02T16:03:57.550Z,52.30
2019-05-02T16:09:02.482Z,52.90
2019-05-02T16:14:06.796Z,53.00
2019-05-02T16:19:14.656Z,53.50
2019-05-02T16:24:22.562Z,53.70
2019-05-02T16:29:28.495Z,53.40
2019-05-02T16:34:35.121Z,53.90
2019-05-02T16:39:44.393Z,53.80
2019-05-02T16:44:44.042Z,53.60
2019-05-02T16:49:53.403Z,54.00
2019-05-02T16:54:54.543Z,54.10
2019-05-02T17:00:01.564Z,54.30
2019-05-02T17:05:09.199Z,54.50
2019-05-02T17:10:21.047Z,54.50
2019-05-02T17:15:35.139Z,55.00
2019-05-02T17:20:38.120Z,54.90
2019-05-02T17:25:42.671Z,54.80
2019-05-02T17:30:46.647Z,55.10
2019-05-02T17:35:52.300Z,54.90
2019-05-02T17:40:59.230Z,55.10
2019-05-02T17:46:04.617Z,55.20
2019-05-02T17:51:37.554Z,55.40
2019-05-02T17:56:39.510Z,55.30
2019-05-02T18:01:43.527Z,55.40
2019-05-02T18:06:52.351Z,55.30
2019-05-02T18:11:53.111Z,55.40
2019-05-02T18:16:57.791Z,55.50
2019-05-02T18:22:03.645Z,55.90
2019-05-02T18:27:08.707Z,56.00
2019-05-02T18:32:12.973Z,56.10
2019-05-02T18:37:17.450Z,56.20
2019-05-02T18:42:25.520Z,56.30
2019-05-02T18:47:28.382Z,56.50
2019-05-02T18:52:38.098Z,57.00
2019-05-02T18:57:38.652Z,57.10
2019-05-02T19:02:43.211Z,57.30
2019-05-02T19:07:52.101Z,57.40
2019-05-02T19:12:56.011Z,57.30
2019-05-02T19:17:59.911Z,57.20
2019-05-02T19:23:03.999Z,57.20
2019-05-02T19:28:14.819Z,57.60
2019-05-02T19:33:21.115Z,57.50
2019-05-02T19:38:26.270Z,57.60
2019-05-02T19:43:32.401Z,57.50
2019-05-02T19:48:40.342Z,58.00
2019-05-02T19:53:43.255Z,58.00
2019-05-02T19:58:47.484Z,58.00
2019-05-02T20:03:52.027Z,58.10
2019-05-02T20:08:59.167Z,58.20
2019-05-02T20:14:09.075Z,58.30
2019-05-02T20:19:08.422Z,57.90
2019-05-02T20:24:17.372Z,58.00
2019-05-02T20:29:18.477Z,57.80
2019-05-02T20:34:22.474Z,57.80
2019-05-02T20:39:26.735Z,57.70
2019-05-02T20:44:32.087Z,57.70
2019-05-02T20:49:36.332Z,57.70
2019-05-02T20:54:42.681Z,57.80
2019-05-02T20:59:46.515Z,57.90
2019-05-02T21:04:52.163Z,57.80
2019-05-02T21:10:04.726Z,57.70
2019-05-02T21:15:08.988Z,57.40
2019-05-02T21:20:13.365Z,57.80
2019-05-02T21:25:17.851Z,57.60
2019-05-02T21:30:26.454Z,57.80
2019-05-02T21:35:31.907Z,57.60
2019-05-02T21:40:36.079Z,57.90
2019-05-02T21:45:42.106Z,57.80
2019-05-02T21:50:51.417Z,57.50
2019-05-02T21:56:12.167Z,57.50
2019-05-02T22:01:15.987Z,57.60
2019-05-02T22:06:20.030Z,57.50
2019-05-02T22:11:24.328Z,57.70
2019-05-02T22:16:28.370Z,57.40
2019-05-02T22:21:35.101Z,57.30
2019-05-02T22:26:38.627Z,57.40
2019-05-02T22:31:43.192Z,57.30
2019-05-02T22:36:47.827Z,57.00
2019-05-02T22:41:52.671Z,57.10
2019-05-02T22:46:57.547Z,57.00
2019-05-02T22:52:01.864Z,57.10
2019-05-02T22:57:05.919Z,57.10
2019-05-02T23:02:09.967Z,57.00
2019-05-02T23:07:14.361Z,57.00
2019-05-02T23:12:18.791Z,56.90
2019-05-02T23:17:23.286Z,57.00
2019-05-02T23:22:27.395Z,57.00
2019-05-02T23:27:38.859Z,57.10
2019-05-02T23:32:42.868Z,57.10
2019-05-02T23:37:47.031Z,57.00
2019-05-02T23:42:52.428Z,57.00
2019-05-02T23:47:56.713Z,56.90
2019-05-02T23:53:02.379Z,56.90
2019-05-02T23:58:06.723Z,57.00
